Time;durP1;ratioP1;P1;durP2;ratioP2;P2;SDS_P1;SDS_P2;PMS_P1;PMS_P2;Temp;Humidity;BMP_temperature;BMP_pressure;BME280_temperature;BME280_humidity;BME280_pressure;Samples;Min_cycle;Max_cycle;Signal;HPM_P1;HPM_P2
2022/08/06 00:01:58;;;;;;;12.90;11.63;;;;;;;22.64;64.42;99529.41;4971539;28;20038;-82
2022/08/06 00:04:23;;;;;;;11.77;10.65;;;;;;;22.63;65.34;99539.19;4989345;28;20042;-82
2022/08/06 00:06:49;;;;;;;11.02;9.93;;;;;;;22.61;65.07;99536.09;4989102;28;20034;-81
2022/08/06 00:09:15;;;;;;;10.25;8.85;;;;;;;22.55;65.99;99526.94;4965418;28;20125;-82
2022/08/06 00:11:40;;;;;;;8.07;7.28;;;;;;;22.39;67.09;99546.91;4972571;28;20064;-81
2022/08/06 00:14:07;;;;;;;8.10;6.30;;;;;;;22.37;65.87;99544.59;4990442;28;20486;-89
2022/08/06 00:16:32;;;;;;;6.32;5.70;;;;;;;22.29;66.01;99550.09;4987719;28;20483;-81
2022/08/06 00:18:58;;;;;;;7.45;5.97;;;;;;;22.23;66.82;99549.38;4968457;28;20073;-82
2022/08/06 00:21:23;;;;;;;8.95;6.75;;;;;;;22.26;66.26;99548.31;4989969;28;20038;-81
2022/08/06 00:23:49;;;;;;;7.68;6.88;;;;;;;22.37;66.25;99555.91;4971160;28;20034;-81
2022/08/06 00:26:14;;;;;;;7.90;6.10;;;;;;;22.31;66.54;99547.50;4970909;28;20077;-82
2022/08/06 00:28:40;;;;;;;6.68;5.97;;;;;;;22.26;66.35;99551.16;4979148;28;20463;-81
2022/08/06 00:31:07;;;;;;;7.35;5.35;;;;;;;22.28;65.75;99548.53;4985698;28;20039;-81
2022/08/06 00:33:33;;;;;;;5.95;5.20;;;;;;;21.99;67.09;99555.03;4988837;28;20117;-89
2022/08/06 00:35:58;;;;;;;5.50;4.78;;;;;;;21.98;66.14;99545.00;4972882;28;20113;-88
2022/08/06 00:38:24;;;;;;;5.78;5.20;;;;;;;22.01;66.94;99552.41;4978090;28;20407;-88
2022/08/06 00:40:49;;;;;;;5.47;4.97;;;;;;;21.93;67.87;99551.47;4988347;28;20057;-88
2022/08/06 00:43:15;;;;;;;6.00;4.90;;;;;;;21.94;67.69;99550.19;4971172;28;20155;-88
2022/08/06 00:45:41;;;;;;;6.13;4.95;;;;;;;21.82;67.95;99541.03;4985770;28;20053;-88
2022/08/06 00:48:06;;;;;;;5.75;4.75;;;;;;;21.86;67.53;99552.78;4988128;28;20026;-88
2022/08/06 00:50:32;;;;;;;5.55;4.90;;;;;;;21.94;67.12;99552.22;4986344;28;20108;-82
2022/08/06 00:52:59;;;;;;;5.97;5.10;;;;;;;21.92;67.46;99555.56;4951753;28;20039;-89
2022/08/06 00:55:25;;;;;;;5.18;4.68;;;;;;;21.87;68.24;99556.38;4988324;28;20099;-88
2022/08/06 00:57:50;;;;;;;5.10;4.60;;;;;;;21.81;68.42;99544.34;4956060;28;20046;-88
2022/08/06 01:00:16;;;;;;;5.68;4.78;;;;;;;21.83;68.02;99553.09;4967926;28;20072;-89
2022/08/06 01:05:37;;;;;;;6.80;5.07;;;;;;;21.80;68.57;99548.47;3257744;26;20044;-83
2022/08/06 01:08:03;;;;;;;6.13;5.03;;;;;;;21.76;68.58;99547.97;4914473;29;20452;-83
2022/08/06 01:10:29;;;;;;;5.18;4.68;;;;;;;21.76;70.33;99547.97;4913704;28;20089;-83
2022/08/06 01:12:54;;;;;;;6.28;5.18;;;;;;;21.75;70.01;99552.13;4893346;29;20132;-83
2022/08/06 01:15:20;;;;;;;6.20;5.60;;;;;;;21.76;70.16;99537.47;4915843;29;20047;-83
2022/08/06 01:18:12;;;;;;;5.65;5.15;;;;;;;21.77;69.50;99552.34;4913564;29;20032;-83
2022/08/06 01:20:52;;;;;;;5.72;5.07;;;;;;;21.64;70.20;99552.19;4910196;28;20401;-83
2022/08/06 01:23:35;;;;;;;7.32;5.10;;;;;;;21.59;70.07;99547.38;4912852;29;20036;-83
2022/08/06 01:26:46;;;;;;;5.70;5.18;;;;;;;21.61;69.90;99558.88;4927473;29;20039;-83
2022/08/06 01:29:17;;;;;;;7.97;5.20;;;;;;;21.59;69.96;99555.84;4918980;28;20044;-83
2022/08/06 01:31:52;;;;;;;5.93;5.30;;;;;;;21.54;70.78;99559.47;4903136;29;20098;-83
2022/08/06 01:34:25;;;;;;;5.50;5.00;;;;;;;21.55;69.98;99547.66;4928866;29;20046;-84
2022/08/06 01:36:55;;;;;;;5.68;5.07;;;;;;;21.56;70.55;99552.00;4907251;29;20178;-83
2022/08/06 01:39:23;;;;;;;5.50;4.97;;;;;;;21.61;70.54;99559.66;4914776;29;20056;-84
2022/08/06 01:41:51;;;;;;;6.22;4.85;;;;;;;21.67;69.89;99573.75;4916654;29;20037;-83
2022/08/06 01:44:20;;;;;;;5.80;5.30;;;;;;;21.71;69.23;99579.88;4934817;28;20492;-83
2022/08/06 01:46:51;;;;;;;5.78;5.28;;;;;;;21.49;71.99;99577.19;4911199;28;20123;-83
2022/08/06 01:49:21;;;;;;;5.60;5.10;;;;;;;21.54;71.03;99577.16;4925822;29;20060;-84
2022/08/06 01:51:48;;;;;;;6.38;5.47;;;;;;;21.67;69.89;99574.50;4924225;28;20039;-84
2022/08/06 01:54:14;;;;;;;5.45;4.95;;;;;;;21.62;70.78;99578.13;4910206;29;20416;-84
2022/08/06 01:56:44;;;;;;;6.53;5.03;;;;;;;21.67;70.84;99579.38;4941500;28;20032;-83
2022/08/06 01:59:13;;;;;;;6.07;5.13;;;;;;;21.67;70.40;99576.56;4941370;29;20499;-84
2022/08/06 02:01:39;;;;;;;5.80;5.20;;;;;;;21.60;70.66;99575.06;4923307;29;20501;-84
2022/08/06 02:04:05;;;;;;;5.30;4.80;;;;;;;21.63;70.33;99573.25;4891380;28;20086;-84
2022/08/06 02:06:42;;;;;;;5.60;5.10;;;;;;;21.54;71.14;99576.38;4930199;29;20520;-84
2022/08/06 02:09:11;;;;;;;6.80;5.10;;;;;;;21.50;71.69;99582.31;4912957;29;20109;-84
2022/08/06 02:11:38;;;;;;;5.88;5.13;;;;;;;21.45;71.56;99571.06;4913776;29;20485;-84
2022/08/06 02:14:05;;;;;;;6.18;5.03;;;;;;;21.40;71.47;99570.56;4909291;29;20040;-84
2022/08/06 02:16:35;;;;;;;6.32;5.20;;;;;;;21.30;71.35;99574.25;4979800;28;20110;-84
2022/08/06 02:19:02;;;;;;;7.55;5.18;;;;;;;21.25;71.30;99567.34;4909271;29;20036;-83
2022/08/06 02:21:29;;;;;;;5.70;4.93;;;;;;;21.25;71.30;99570.16;4917658;28;20485;-84
2022/08/06 02:23:56;;;;;;;5.78;5.20;;;;;;;21.26;71.61;99577.34;4910955;29;20028;-83
2022/08/06 02:26:22;;;;;;;5.75;4.90;;;;;;;21.26;71.41;99574.53;4912566;29;20031;-84
2022/08/06 02:28:48;;;;;;;6.60;5.38;;;;;;;21.21;71.20;99580.97;4897262;29;20562;-84
2022/08/06 02:31:14;;;;;;;5.80;5.20;;;;;;;21.20;71.99;99575.81;4901549;28;20040;-84
2022/08/06 02:33:40;;;;;;;6.28;5.10;;;;;;;21.22;71.79;99576.84;4898646;29;20055;-84
2022/08/06 02:36:19;;;;;;;5.72;5.13;;;;;;;21.19;72.15;99580.69;4929392;28;20036;-84
2022/08/06 02:38:59;;;;;;;6.80;5.13;;;;;;;21.22;71.71;99582.50;4927266;29;20119;-84
2022/08/06 02:41:38;;;;;;;5.25;4.75;;;;;;;21.19;72.27;99580.69;4914152;29;20059;-84
2022/08/06 02:44:15;;;;;;;4.88;4.47;;;;;;;21.18;69.46;99573.53;4894836;29;20048;-84
2022/08/06 02:46:46;;;;;;;5.10;4.60;;;;;;;21.31;68.63;99585.00;4909415;29;20092;-84
2022/08/06 02:49:17;;;;;;;5.10;4.60;;;;;;;21.32;67.99;99578.06;4892017;29;20393;-84
2022/08/06 02:51:53;;;;;;;5.10;4.60;;;;;;;21.44;67.35;99594.91;4928077;29;20526;-84
2022/08/06 02:54:22;;;;;;;5.28;4.78;;;;;;;21.43;67.91;99587.75;4898981;29;20032;-84
2022/08/06 02:56:50;;;;;;;5.50;4.80;;;;;;;21.42;69.21;99597.50;4973274;28;20036;-84
2022/08/06 02:59:21;;;;;;;5.50;5.00;;;;;;;21.34;70.58;99591.66;4909340;29;20127;-84
2022/08/06 03:01:54;;;;;;;5.80;5.20;;;;;;;21.24;71.96;99581.94;4923626;28;20039;-84
2022/08/06 03:04:23;;;;;;;6.28;4.78;;;;;;;21.23;71.14;99589.66;4908746;28;20044;-84
2022/08/06 03:06:49;;;;;;;5.47;4.63;;;;;;;21.22;71.58;99585.31;4914676;28;20036;-84
2022/08/06 03:09:17;;;;;;;5.20;4.70;;;;;;;21.08;72.32;99577.91;4896881;29;20059;-84
2022/08/06 03:11:44;;;;;;;5.60;5.10;;;;;;;21.05;72.84;99586.66;4950784;28;20041;-84
2022/08/06 03:14:11;;;;;;;6.70;5.18;;;;;;;21.09;71.91;99593.56;4912087;29;20505;-84
2022/08/06 03:16:37;;;;;;;5.47;4.80;;;;;;;21.15;71.82;99593.56;4896524;29;20556;-83
2022/08/06 03:19:04;;;;;;;6.28;5.65;;;;;;;21.47;71.93;99593.88;4910949;29;20032;-83
2022/08/06 03:21:30;;;;;;;7.05;6.05;;;;;;;21.86;70.76;99592.31;4930240;29;20044;-84
2022/08/06 03:23:58;;;;;;;7.32;5.78;;;;;;;22.29;69.26;99598.13;4899990;29;20500;-84
2022/08/06 03:26:25;;;;;;;7.32;5.78;;;;;;;22.70;67.73;99597.19;4899794;29;20400;-83
2022/08/06 03:28:53;;;;;;;7.05;5.80;;;;;;;22.85;67.16;99596.78;4912241;29;20098;-83
2022/08/06 03:31:18;;;;;;;10.30;6.03;;;;;;;23.01;66.90;99596.56;4899073;28;21142;-84
2022/08/06 03:33:44;;;;;;;6.40;5.80;;;;;;;23.06;66.88;99594.97;4930643;29;20043;-84
2022/08/06 03:36:10;;;;;;;7.25;6.20;;;;;;;23.47;65.88;99597.53;4931044;29;20028;-84
2022/08/06 03:38:46;;;;;;;6.18;5.68;;;;;;;23.84;64.48;99605.97;4931271;29;20070;-84
2022/08/06 03:41:13;;;;;;;7.13;6.43;;;;;;;24.12;64.09;99606.28;4925157;28;20480;-85
2022/08/06 03:43:39;;;;;;;9.35;6.15;;;;;;;24.26;63.24;99607.09;4924037;29;20028;-85
2022/08/06 03:46:06;;;;;;;7.03;6.15;;;;;;;24.28;63.06;99606.53;4920583;28;20032;-84
2022/08/06 03:48:35;;;;;;;6.90;6.20;;;;;;;24.40;63.35;99614.31;4907923;29;20060;-85
2022/08/06 03:51:03;;;;;;;9.13;6.40;;;;;;;24.46;63.01;99606.47;4889789;28;20040;-84
2022/08/06 03:53:33;;;;;;;8.68;6.28;;;;;;;24.52;63.37;99620.53;4928373;28;20035;-82
2022/08/06 03:55:59;;;;;;;9.73;6.10;;;;;;;24.57;62.43;99614.00;4929860;29;20032;-82
2022/08/06 03:58:27;;;;;;;7.50;5.85;;;;;;;24.57;62.79;99614.78;4930815;29;20127;-82
2022/08/06 04:01:02;;;;;;;8.35;6.05;;;;;;;24.63;62.32;99620.31;4915272;29;20035;-82
2022/08/06 04:03:28;;;;;;;6.70;6.00;;;;;;;24.68;62.24;99633.63;4913798;29;20097;-82
2022/08/06 04:05:55;;;;;;;7.97;6.25;;;;;;;24.69;62.90;99632.34;4914618;28;20052;-82
2022/08/06 04:08:21;;;;;;;6.68;5.93;;;;;;;24.73;62.78;99641.28;4930274;29;20483;-82
2022/08/06 04:10:48;;;;;;;7.63;6.20;;;;;;;24.71;62.78;99631.81;4931002;28;20035;-84
2022/08/06 04:13:16;;;;;;;7.20;6.03;;;;;;;24.72;62.64;99634.06;4899639;29;20036;-83
2022/08/06 04:15:41;;;;;;;10.65;6.22;;;;;;;24.78;63.19;99648.16;4912057;29;20059;-83
2022/08/06 04:18:09;;;;;;;8.25;6.03;;;;;;;24.79;62.87;99656.09;4929802;29;20070;-84
2022/08/06 04:20:35;;;;;;;7.97;6.13;;;;;;;24.84;62.61;99654.47;4930123;29;20027;-84
2022/08/06 04:23:01;;;;;;;12.77;5.90;;;;;;;24.86;62.63;99658.34;4911428;29;20036;-83
2022/08/06 04:25:28;;;;;;;7.10;5.65;;;;;;;24.90;62.45;99664.47;4930958;28;20566;-83
2022/08/06 04:27:54;;;;;;;6.53;5.93;;;;;;;24.91;62.47;99674.47;4914408;29;20036;-83
2022/08/06 04:30:22;;;;;;;9.98;5.72;;;;;;;24.88;62.14;99664.22;4914484;29;20102;-84
2022/08/06 04:32:48;;;;;;;7.28;5.63;;;;;;;24.87;62.21;99668.34;4912478;29;20032;-84
2022/08/06 04:35:14;;;;;;;7.18;5.70;;;;;;;24.93;61.61;99683.22;4929925;29;20040;-85
2022/08/06 04:37:40;;;;;;;10.20;5.38;;;;;;;24.98;61.47;99682.34;4912545;29;20028;-84
2022/08/06 04:40:07;;;;;;;8.40;5.50;;;;;;;24.99;61.41;99686.69;4927284;28;20394;-84
2022/08/06 04:42:33;;;;;;;13.40;5.60;;;;;;;25.00;61.56;99687.47;4929049;29;20126;-85
2022/08/06 04:44:59;;;;;;;10.88;4.97;;;;;;;25.02;60.79;99690.53;4912830;29;20110;-84
2022/08/06 04:47:24;;;;;;;10.25;5.20;;;;;;;25.01;61.00;99683.31;4908971;28;20038;-84
2022/08/06 04:49:50;;;;;;;7.63;4.80;;;;;;;25.03;60.48;99684.28;4896645;28;20098;-85
2022/08/06 04:52:26;;;;;;;7.72;4.90;;;;;;;25.06;61.05;99688.91;4925323;29;20055;-82
2022/08/06 04:54:52;;;;;;;5.65;4.60;;;;;;;25.15;60.78;99692.59;4906591;29;20046;-82
2022/08/06 04:57:17;;;;;;;7.80;4.82;;;;;;;25.16;61.01;99700.56;4911393;29;20032;-83
2022/08/06 04:59:43;;;;;;;7.63;4.28;;;;;;;25.24;60.14;99706.34;4926889;29;20040;-83
2022/08/06 05:02:09;;;;;;;9.02;4.68;;;;;;;25.25;60.48;99702.19;4908611;28;20090;-83
2022/08/06 05:04:35;;;;;;;7.65;4.50;;;;;;;25.31;60.11;99711.38;4918707;28;20036;-83
2022/08/06 05:07:11;;;;;;;10.38;4.88;;;;;;;25.36;60.39;99701.97;4910309;29;20043;-82
2022/08/06 05:09:37;;;;;;;7.10;4.43;;;;;;;25.43;60.00;99707.00;4915316;28;20046;-84
2022/08/06 05:12:21;;;;;;;10.75;4.80;;;;;;;25.48;60.07;99717.47;4937618;28;20032;-83
2022/08/06 05:14:59;;;;;;;9.02;4.57;;;;;;;25.50;59.98;99712.78;4928500;29;20036;-83
2022/08/06 05:17:29;;;;;;;6.28;4.22;;;;;;;25.54;60.21;99706.78;4931002;29;20032;-85
2022/08/06 05:20:16;;;;;;;10.15;4.00;;;;;;;25.59;60.25;99707.97;4936523;28;20054;-83
2022/08/06 05:22:44;;;;;;;6.03;4.22;;;;;;;25.70;59.94;99719.09;4987666;28;20039;-83
2022/08/06 05:25:10;;;;;;;6.55;4.30;;;;;;;25.78;59.56;99720.72;4910919;29;20028;-83
2022/08/06 05:27:36;;;;;;;6.60;4.47;;;;;;;25.83;59.91;99717.00;4929134;29;20443;-84
2022/08/06 05:30:05;;;;;;;4.97;4.28;;;;;;;25.82;59.83;99721.16;4902720;29;20071;-84
2022/08/06 05:32:31;;;;;;;9.18;4.57;;;;;;;25.84;60.17;99724.19;4909322;29;20037;-84
2022/08/06 05:34:56;;;;;;;6.97;4.40;;;;;;;25.96;59.65;99725.47;4928464;28;20525;-84
2022/08/06 05:37:22;;;;;;;5.18;4.25;;;;;;;25.92;60.13;99727.88;4913815;28;20036;-85
2022/08/06 05:39:47;;;;;;;6.43;4.35;;;;;;;25.91;60.40;99729.22;4914369;29;20489;-84
2022/08/06 05:42:13;;;;;;;7.45;4.60;;;;;;;25.83;60.45;99719.84;4926157;28;20163;-84
2022/08/06 05:44:38;;;;;;;8.68;4.30;;;;;;;25.95;60.17;99732.47;4928800;29;20032;-83
2022/08/06 05:47:07;;;;;;;4.90;4.40;;;;;;;26.10;60.23;99740.41;4930495;28;20054;-84
2022/08/06 05:49:35;;;;;;;5.63;4.47;;;;;;;26.13;60.80;99739.28;4911774;28;20047;-83
2022/08/06 05:52:44;;;;;;;10.77;4.60;;;;;;;26.16;60.93;99743.13;4925820;28;20052;-85
2022/08/06 05:55:18;;;;;;;4.93;4.25;;;;;;;26.00;61.11;99747.88;4915812;29;20056;-84
2022/08/06 05:57:46;;;;;;;8.15;4.68;;;;;;;25.90;62.02;99750.41;4926651;29;20052;-83
2022/08/06 06:00:15;;;;;;;6.47;4.35;;;;;;;25.81;62.12;99752.94;4972454;28;20044;-85
2022/08/06 06:02:45;;;;;;;9.75;4.50;;;;;;;25.64;62.85;99750.44;4923663;28;20056;-83
2022/08/06 06:05:11;;;;;;;11.07;5.00;;;;;;;25.54;63.45;99757.91;4905140;29;20911;-84
2022/08/06 06:07:37;;;;;;;11.38;5.25;;;;;;;25.43;63.83;99758.09;4936307;28;20139;-84
2022/08/06 06:10:04;;;;;;;9.70;5.00;;;;;;;25.38;64.71;99750.47;4921174;29;22630;-85
2022/08/06 06:12:33;;;;;;;8.38;4.53;;;;;;;25.44;64.76;99762.47;4932018;28;20046;-86
2022/08/06 06:15:07;;;;;;;6.43;4.35;;;;;;;25.44;65.29;99753.94;4941289;29;20044;-84
2022/08/06 06:18:23;;;;;;;8.05;4.63;;;;;;;25.61;65.06;99754.41;4898496;28;20123;-85
2022/08/06 06:21:04;;;;;;;6.10;4.60;;;;;;;25.71;65.23;99771.75;4960268;28;20079;-84
2022/08/06 06:23:36;;;;;;;8.30;5.03;;;;;;;25.61;65.30;99774.28;4927429;29;20149;-85
2022/08/06 06:26:21;;;;;;;5.83;4.80;;;;;;;25.79;64.93;99761.25;4940669;28;20032;-85
2022/08/06 06:29:03;;;;;;;8.10;4.50;;;;;;;25.74;64.86;99764.97;4935593;29;20071;-84
2022/08/06 06:31:54;;;;;;;9.23;4.93;;;;;;;25.73;65.78;99767.03;4913105;29;20145;-84
2022/08/06 06:34:40;;;;;;;5.43;4.78;;;;;;;25.55;66.24;99753.00;4911208;29;20498;-85
2022/08/06 06:37:36;;;;;;;11.70;5.18;;;;;;;25.56;66.10;99769.47;4923195;29;20169;-85
2022/08/06 06:40:10;;;;;;;8.13;5.00;;;;;;;25.83;65.98;99779.50;4911794;29;20082;-84
2022/08/06 06:42:53;;;;;;;10.32;5.25;;;;;;;26.02;64.70;99772.88;4895393;28;20036;-84
2022/08/06 06:45:32;;;;;;;12.40;4.93;;;;;;;26.15;64.65;99773.63;4898892;29;20521;-84
2022/08/06 06:48:07;;;;;;;11.55;5.25;;;;;;;26.27;63.46;99765.63;4922210;29;20053;-84
2022/08/06 06:50:34;;;;;;;8.57;4.75;;;;;;;26.39;63.02;99772.56;4927829;29;20480;-84
2022/08/06 06:53:00;;;;;;;8.50;4.88;;;;;;;26.53;62.87;99762.66;4926590;29;20039;-85
2022/08/06 06:55:32;;;;;;;10.95;5.38;;;;;;;26.49;62.21;99787.84;4916182;28;20079;-84
2022/08/06 06:58:31;;;;;;;8.77;5.35;;;;;;;26.58;61.78;99784.50;4888442;29;20501;-85
2022/08/06 07:00:58;;;;;;;12.73;4.88;;;;;;;26.62;61.85;99773.56;4907321;29;20042;-86
2022/08/06 07:03:24;;;;;;;9.93;4.93;;;;;;;26.83;60.68;99782.84;4923955;29;20115;-86
2022/08/06 07:05:50;;;;;;;16.75;5.40;;;;;;;26.85;60.39;99780.22;4912312;29;20568;-85
2022/08/06 07:08:18;;;;;;;7.18;4.55;;;;;;;26.99;59.71;99769.53;4928145;29;20066;-84
2022/08/06 07:10:44;;;;;;;7.28;4.97;;;;;;;27.15;58.82;99778.94;4893938;28;20044;-84
2022/08/06 07:13:11;;;;;;;6.32;4.88;;;;;;;27.18;58.82;99760.75;4923637;29;20059;-84
2022/08/06 07:15:37;;;;;;;6.80;4.90;;;;;;;27.16;58.10;99757.72;4896561;28;20032;-85
2022/08/06 07:18:03;;;;;;;7.07;5.00;;;;;;;27.11;58.48;99755.75;4926637;29;20043;-85
2022/08/06 07:20:30;;;;;;;8.02;4.93;;;;;;;27.19;58.43;99776.50;4929474;29;20485;-82
2022/08/06 07:22:59;;;;;;;7.85;4.55;;;;;;;27.33;57.77;99766.56;4915719;28;20412;-83
2022/08/06 07:25:25;;;;;;;8.20;5.40;;;;;;;27.45;57.88;99764.91;4911384;29;20417;-83
2022/08/06 07:27:51;;;;;;;14.23;5.28;;;;;;;27.54;58.17;99772.94;4913065;29;20031;-82
2022/08/06 07:30:18;;;;;;;7.88;5.00;;;;;;;27.86;56.61;99771.78;4908515;29;20126;-84
2022/08/06 07:32:46;;;;;;;8.60;5.00;;;;;;;27.95;57.05;99759.84;4910404;29;20071;-84
2022/08/06 07:35:13;;;;;;;13.95;4.93;;;;;;;28.12;55.58;99766.59;4898797;29;20494;-84
2022/08/06 07:37:54;;;;;;;8.48;5.50;;;;;;;28.28;55.60;99775.94;4924794;28;20161;-91
2022/08/06 07:40:26;;;;;;;9.95;5.45;;;;;;;28.00;56.15;99771.09;4896626;29;20040;-88
2022/08/06 07:42:55;;;;;;;7.47;5.30;;;;;;;27.79;55.85;99762.63;4913015;29;20058;-87
2022/08/06 07:45:23;;;;;;;21.27;6.28;;;;;;;27.77;55.73;99765.31;4911885;29;20036;-87
2022/08/06 07:47:49;;;;;;;7.40;6.05;;;;;;;27.62;56.22;99770.91;4911325;29;20055;-88
2022/08/06 07:50:15;;;;;;;11.80;6.05;;;;;;;27.80;55.86;99786.97;4910752;29;20495;-87
2022/08/06 07:52:41;;;;;;;11.13;6.25;;;;;;;27.70;56.41;99771.72;4927244;29;20127;-89
2022/08/06 07:55:10;;;;;;;12.82;6.80;;;;;;;27.82;55.70;99772.91;4926377;29;20536;-89
2022/08/06 07:57:36;;;;;;;12.05;6.35;;;;;;;27.99;56.09;99774.50;4911484;29;20051;-89
2022/08/06 08:00:06;;;;;;;11.90;6.95;;;;;;;28.15;54.66;99773.25;4911050;29;20412;-89
2022/08/06 08:02:37;;;;;;;9.18;6.80;;;;;;;28.11;54.41;99779.31;4913546;29;20378;-89
2022/08/06 08:07:48;;;;;;;11.63;6.38;;;;;;;28.00;54.94;99781.72;4933094;29;20048;-87
2022/08/06 08:10:14;;;;;;;10.07;6.78;;;;;;;28.36;54.80;99791.00;4930964;29;20097;-89
2022/08/06 08:12:40;;;;;;;9.25;6.55;;;;;;;28.55;53.39;99808.50;4916066;29;20097;-89
2022/08/06 08:15:06;;;;;;;12.70;6.68;;;;;;;28.52;54.54;99809.66;4932658;29;20028;-86
2022/08/06 08:17:33;;;;;;;11.32;6.97;;;;;;;28.38;54.17;99808.31;4916309;29;20039;-88
2022/08/06 08:20:06;;;;;;;10.95;6.75;;;;;;;28.33;55.13;99802.78;4932888;29;20067;-81
2022/08/06 08:22:31;;;;;;;10.73;6.80;;;;;;;28.56;55.02;99798.63;4947760;29;20043;-81
2022/08/06 08:24:57;;;;;;;9.30;6.25;;;;;;;28.95;53.31;99810.88;4915325;29;20385;-81
2022/08/06 08:27:22;;;;;;;10.57;6.82;;;;;;;28.96;52.59;99815.25;4931461;29;20090;-81
2022/08/06 08:29:48;;;;;;;11.40;6.95;;;;;;;28.80;53.03;99805.16;4915707;29;20046;-82
2022/08/06 08:32:13;;;;;;;11.70;6.88;;;;;;;28.94;53.30;99810.13;4931628;28;20027;-81
2022/08/06 08:34:39;;;;;;;8.95;6.35;;;;;;;29.08;52.64;99791.47;4947406;29;20107;-81
2022/08/06 08:37:04;;;;;;;10.73;6.43;;;;;;;29.33;51.93;99805.94;4930186;29;20056;-83
2022/08/06 08:39:30;;;;;;;10.07;6.00;;;;;;;29.53;50.90;99789.88;4897639;29;20032;-87
2022/08/06 08:42:06;;;;;;;7.85;6.28;;;;;;;29.57;50.58;99801.69;4913315;29;20074;-88
2022/08/06 08:44:33;;;;;;;11.25;6.70;;;;;;;29.57;50.08;99796.75;4914514;28;20043;-87
2022/08/06 08:46:59;;;;;;;10.23;6.43;;;;;;;29.63;49.91;99800.16;4912984;29;20101;-85
2022/08/06 08:49:40;;;;;;;15.55;7.07;;;;;;;29.15;51.22;99801.38;4923895;29;20049;-87
2022/08/06 08:52:13;;;;;;;9.07;7.18;;;;;;;29.10;51.57;99805.94;4931229;29;20044;-85
2022/08/06 08:54:41;;;;;;;9.05;6.75;;;;;;;29.12;52.14;99802.50;4922110;29;20032;-92
2022/08/06 08:57:08;;;;;;;14.00;6.80;;;;;;;29.27;51.75;99801.72;4916799;28;20032;-82
2022/08/06 08:59:36;;;;;;;10.93;6.80;;;;;;;28.96;51.91;99786.69;4894151;29;20044;-91
2022/08/06 09:02:02;;;;;;;13.40;6.90;;;;;;;29.07;52.26;99797.75;4910879;29;20037;-92
2022/08/06 09:04:28;;;;;;;9.95;6.53;;;;;;;29.53;51.84;99801.31;4911127;29;20159;-91
2022/08/06 09:06:53;;;;;;;8.85;6.18;;;;;;;29.90;50.12;99799.72;4912251;29;20067;-91
2022/08/06 09:09:20;;;;;;;10.10;6.50;;;;;;;30.11;49.67;99800.19;4896184;29;20044;-92
2022/08/06 09:11:46;;;;;;;7.50;6.78;;;;;;;29.94;49.84;99800.09;4912279;28;20035;-90
2022/08/06 09:14:12;;;;;;;10.35;6.97;;;;;;;29.74;49.59;99803.94;4926195;28;20364;-92
2022/08/06 09:16:37;;;;;;;10.38;7.32;;;;;;;29.38;51.43;99816.41;4910404;29;20472;-83
2022/08/06 09:19:04;;;;;;;13.00;7.25;;;;;;;29.72;51.28;99812.34;4878587;28;20040;-93
2022/08/06 09:21:31;;;;;;;9.02;6.95;;;;;;;30.19;49.29;99809.50;4910304;28;20094;-94
2022/08/06 09:23:57;;;;;;;14.10;6.85;;;;;;;30.37;48.33;99807.50;4894487;29;20049;-94
2022/08/06 09:26:22;;;;;;;9.82;6.75;;;;;;;30.18;49.25;99807.97;4878888;28;20034;-94
2022/08/06 09:28:48;;;;;;;9.20;6.70;;;;;;;30.16;49.85;99822.13;4895131;28;20040;-92
2022/08/06 09:31:17;;;;;;;8.27;6.82;;;;;;;29.71;51.59;99810.81;4912743;29;20116;-93
2022/08/06 09:33:53;;;;;;;7.60;6.40;;;;;;;28.94;53.36;99827.25;4881014;29;20135;-93
2022/08/06 09:36:19;;;;;;;7.07;6.20;;;;;;;28.81;52.95;99826.66;4911663;29;20043;-81
2022/08/06 09:38:48;;;;;;;12.55;6.78;;;;;;;29.11;52.03;99813.19;4911550;28;20102;-81
2022/08/06 09:41:15;;;;;;;10.65;6.28;;;;;;;29.60;50.30;99814.84;4912613;29;20557;-82
2022/08/06 09:43:41;;;;;;;11.20;6.35;;;;;;;29.79;50.04;99829.47;4895611;29;20119;-81
2022/08/06 09:46:07;;;;;;;7.78;6.50;;;;;;;29.99;50.47;99819.91;4895946;29;20048;-81
2022/08/06 09:48:33;;;;;;;11.45;6.45;;;;;;;30.15;49.36;99817.72;4911021;29;20058;-81
2022/08/06 09:50:59;;;;;;;12.75;6.60;;;;;;;30.24;48.54;99840.00;4880244;28;20028;-81
2022/08/06 09:53:24;;;;;;;7.28;6.13;;;;;;;30.23;49.21;99834.84;4911387;29;20404;-81
2022/08/06 09:55:52;;;;;;;7.80;6.00;;;;;;;30.26;48.75;99859.44;4895686;28;20217;-93
2022/08/06 09:58:33;;;;;;;13.10;6.05;;;;;;;30.24;48.03;99845.72;4879940;29;20027;-93
2022/08/06 10:01:23;;;;;;;14.15;6.00;;;;;;;30.18;48.61;99859.47;4911716;28;20088;-93
2022/08/06 10:03:54;;;;;;;13.40;6.25;;;;;;;30.42;46.86;99867.38;4911293;29;20042;-91
2022/08/06 10:06:22;;;;;;;6.65;5.80;;;;;;;30.27;47.78;99869.53;4910912;29;20056;-91
2022/08/06 10:08:50;;;;;;;9.48;6.15;;;;;;;30.30;47.57;99877.72;4911542;28;20032;-91
2022/08/06 10:11:32;;;;;;;8.60;5.80;;;;;;;30.35;47.64;99896.78;4882099;28;20063;-92
2022/08/06 10:13:58;;;;;;;7.63;6.13;;;;;;;30.29;48.31;99887.66;4930017;29;20040;-93
2022/08/06 10:16:26;;;;;;;10.10;5.97;;;;;;;30.58;48.07;99895.94;4914386;29;20073;-91
2022/08/06 10:18:53;;;;;;;8.35;6.47;;;;;;;30.74;47.73;99903.88;4914024;29;20122;-93
2022/08/06 10:21:24;;;;;;;6.65;6.05;;;;;;;30.90;47.02;99905.28;4929976;29;20064;-89
2022/08/06 10:23:52;;;;;;;7.72;6.10;;;;;;;31.08;47.52;99903.31;4914710;29;20067;-93
2022/08/06 10:26:25;;;;;;;9.98;6.35;;;;;;;31.24;46.55;99910.44;4914127;29;20032;-93
2022/08/06 10:28:52;;;;;;;7.70;6.90;;;;;;;30.82;47.22;99909.53;4929370;29;20176;-93
2022/08/06 10:31:18;;;;;;;8.57;6.68;;;;;;;30.38;48.92;99918.53;4945797;29;20040;-92
2022/08/06 10:33:51;;;;;;;8.32;6.70;;;;;;;30.46;48.59;99910.69;4929869;29;20036;-81
2022/08/06 10:36:24;;;;;;;9.80;6.70;;;;;;;30.59;48.91;99908.91;4930014;29;20102;-92
2022/08/06 10:38:51;;;;;;;9.43;6.32;;;;;;;30.75;48.23;99916.09;4914186;29;20044;-92
2022/08/06 10:41:17;;;;;;;7.70;6.20;;;;;;;30.77;48.52;99919.16;4929792;29;20082;-91
2022/08/06 10:43:43;;;;;;;16.35;6.15;;;;;;;30.81;48.20;99890.88;4929751;29;20500;-91
2022/08/06 10:46:12;;;;;;;6.80;6.20;;;;;;;30.98;47.25;99917.47;4929414;29;20043;-94
2022/08/06 10:48:39;;;;;;;8.90;5.85;;;;;;;30.62;48.20;99924.94;4945759;29;20086;-93
2022/08/06 10:51:09;;;;;;;6.82;5.70;;;;;;;30.28;48.64;99923.34;4897883;29;20486;-94
2022/08/06 10:53:38;;;;;;;10.90;6.45;;;;;;;29.95;50.05;99927.44;4929357;29;20296;-83
2022/08/06 10:56:06;;;;;;;7.10;5.68;;;;;;;30.00;50.08;99932.97;4929145;29;20047;-81
2022/08/06 10:58:33;;;;;;;7.95;6.47;;;;;;;29.79;50.43;99914.47;4928887;29;20470;-81
2022/08/06 11:01:00;;;;;;;6.00;5.40;;;;;;;29.76;50.59;99930.69;4928969;29;20064;-82
2022/08/06 11:03:47;;;;;;;6.53;5.22;;;;;;;29.96;49.99;99932.59;4913452;29;20035;-83
2022/08/06 11:06:33;;;;;;;8.40;5.88;;;;;;;29.97;49.96;99924.75;4929152;29;20087;-80
2022/08/06 11:09:20;;;;;;;7.20;5.20;;;;;;;29.78;50.24;99924.38;4944831;29;20054;-81
2022/08/06 11:12:29;;;;;;;5.50;4.68;;;;;;;29.94;50.16;99934.47;4913352;29;20042;-92
2022/08/06 11:14:55;;;;;;;6.72;4.75;;;;;;;29.57;50.25;99928.22;4930128;29;20162;-91
2022/08/06 11:17:20;;;;;;;6.93;5.10;;;;;;;29.78;49.64;99930.88;4929105;29;20126;-90
2022/08/06 11:19:48;;;;;;;6.32;4.93;;;;;;;29.83;50.27;99921.34;4928731;29;20109;-92
2022/08/06 11:22:32;;;;;;;8.00;4.55;;;;;;;29.74;49.67;99941.16;4930210;29;20054;-91
2022/08/06 11:24:57;;;;;;;6.25;4.07;;;;;;;29.18;50.53;99928.75;4930122;29;20118;-92
2022/08/06 11:27:52;;;;;;;6.85;4.40;;;;;;;29.53;50.45;99921.34;4930008;29;20120;-93
2022/08/06 11:30:19;;;;;;;6.45;4.20;;;;;;;29.86;48.83;99905.13;4896910;28;20039;-82
2022/08/06 11:32:49;;;;;;;8.80;4.00;;;;;;;29.61;48.74;99934.31;4929393;29;20114;-82
2022/08/06 11:35:33;;;;;;;7.28;4.20;;;;;;;29.10;49.93;99930.84;4913362;29;20134;-80
2022/08/06 11:38:05;;;;;;;10.65;3.97;;;;;;;29.04;50.33;99950.22;4929048;29;20058;-81
2022/08/06 11:41:13;;;;;;;6.22;3.60;;;;;;;28.52;51.80;99940.91;4897334;29;20036;-83
2022/08/06 11:43:53;;;;;;;5.75;3.35;;;;;;;28.49;51.01;99947.00;4932709;29;20052;-82
2022/08/06 11:46:24;;;;;;;6.32;3.10;;;;;;;28.46;50.68;99942.41;4931969;29;20039;-82
2022/08/06 11:48:58;;;;;;;6.53;3.35;;;;;;;28.42;50.58;99942.03;4916699;29;20554;-93
2022/08/06 11:51:42;;;;;;;9.38;2.78;;;;;;;28.66;49.85;99950.09;4933509;29;20032;-92